Terminal Aerodrome Forecast
Issued by NWS Sioux Falls, SD

Home | Current Version | Previous Version | Text Only | Print | Product List | Glossary On
Versions: 1 2 3 4 5 6 7 8 9 10 11 12 13 14 15 16 17 18
000
FTUS43 KFSD 200956 AAA
TAFHON
TAF AMD
KHON 200956Z 2010/2106 36009KT 4SM -DZ BR OVC004
     FM201100 32010KT P6SM OVC008
     FM201300 31010KT P6SM OVC010
     FM202100 33012KT P6SM BKN025
     FM210100 36009KT P6SM FEW200
     FM210300 04006KT P6SM FEW250=

USA.gov is the U.S. government's official web portal to all federal, state and local government web resources and services.